sensor_id;sensor_type;location;lat;lon;timestamp;temperature;humidity
15879;DHT22;61999;51.514;14.614;2024-01-15T00:00:05;-4.00;92.80
15879;DHT22;61999;51.514;14.614;2024-01-15T00:02:34;-4.10;93.00
15879;DHT22;61999;51.514;14.614;2024-01-15T00:05:02;-4.00;93.00
15879;DHT22;61999;51.514;14.614;2024-01-15T00:07:31;-4.10;93.40
15879;DHT22;61999;51.514;14.614;2024-01-15T00:10:00;-4.30;93.60
15879;DHT22;61999;51.514;14.614;2024-01-15T00:12:28;-4.40;94.10
15879;DHT22;61999;51.514;14.614;2024-01-15T00:14:56;-4.40;94.30
15879;DHT22;61999;51.514;14.614;2024-01-15T00:17:24;-4.20;93.80
15879;DHT22;61999;51.514;14.614;2024-01-15T00:19:52;-4.20;93.30
15879;DHT22;61999;51.514;14.614;2024-01-15T00:22:20;-4.30;93.10
15879;DHT22;61999;51.514;14.614;2024-01-15T00:24:48;-4.30;93.60
15879;DHT22;61999;51.514;14.614;2024-01-15T00:27:17;-4.30;93.40
15879;DHT22;61999;51.514;14.614;2024-01-15T00:29:45;-4.40;93.30
15879;DHT22;61999;51.514;14.614;2024-01-15T00:32:13;-4.50;93.90
15879;DHT22;61999;51.514;14.614;2024-01-15T00:34:41;-4.20;93.50
15879;DHT22;61999;51.514;14.614;2024-01-15T00:37:09;-4.10;93.10
15879;DHT22;61999;51.514;14.614;2024-01-15T00:39:37;-4.00;92.70
15879;DHT22;61999;51.514;14.614;2024-01-15T00:42:05;-4.20;92.80
15879;DHT22;61999;51.514;14.614;2024-01-15T00:44:35;-4.50;93.10
15879;DHT22;61999;51.514;14.614;2024-01-15T00:47:03;-4.60;93.50
15879;DHT22;61999;51.514;14.614;2024-01-15T00:49:32;-4.60;93.40
15879;DHT22;61999;51.514;14.614;2024-01-15T00:51:59;-4.60;93.40
15879;DHT22;61999;51.514;14.614;2024-01-15T00:54:27;-4.70;93.70
15879;DHT22;61999;51.514;14.614;2024-01-15T00:56:55;-4.60;93.60
15879;DHT22;61999;51.514;14.614;2024-01-15T00:59:23;-4.60;93.40
15879;DHT22;61999;51.514;14.614;2024-01-15T01:01:52;-4.50;93.50
15879;DHT22;61999;51.514;14.614;2024-01-15T01:04:20;-4.40;93.30
15879;DHT22;61999;51.514;14.614;2024-01-15T01:06:48;-4.30;93.10
15879;DHT22;61999;51.514;14.614;2024-01-15T01:09:16;-4.20;93.10
15879;DHT22;61999;51.514;14.614;2024-01-15T01:11:44;-4.20;92.70
15879;DHT22;61999;51.514;14.614;2024-01-15T01:14:12;-4.10;92.50
15879;DHT22;61999;51.514;14.614;2024-01-15T01:16:40;-4.20;92.50
15879;DHT22;61999;51.514;14.614;2024-01-15T01:19:09;-4.20;92.50
15879;DHT22;61999;51.514;14.614;2024-01-15T01:21:37;-4.20;92.50
15879;DHT22;61999;51.514;14.614;2024-01-15T01:24:05;-4.20;92.40
15879;DHT22;61999;51.514;14.614;2024-01-15T01:26:33;-4.20;92.40
15879;DHT22;61999;51.514;14.614;2024-01-15T01:29:01;-4.10;92.30
15879;DHT22;61999;51.514;14.614;2024-01-15T01:31:29;-4.00;92.00
15879;DHT22;61999;51.514;14.614;2024-01-15T01:33:57;-4.10;92.00
15879;DHT22;61999;51.514;14.614;2024-01-15T01:36:26;-4.10;92.10
15879;DHT22;61999;51.514;14.614;2024-01-15T01:38:54;-4.00;91.80
15879;DHT22;61999;51.514;14.614;2024-01-15T01:41:22;-4.00;91.80
15879;DHT22;61999;51.514;14.614;2024-01-15T01:43:50;-3.90;91.60
15879;DHT22;61999;51.514;14.614;2024-01-15T01:46:18;-4.00;91.30
15879;DHT22;61999;51.514;14.614;2024-01-15T01:48:46;-4.10;91.70
15879;DHT22;61999;51.514;14.614;2024-01-15T01:51:15;-4.20;91.90
15879;DHT22;61999;51.514;14.614;2024-01-15T01:53:45;-4.20;91.90
15879;DHT22;61999;51.514;14.614;2024-01-15T01:56:14;-4.20;91.90
15879;DHT22;61999;51.514;14.614;2024-01-15T01:58:43;-4.30;91.70
15879;DHT22;61999;51.514;14.614;2024-01-15T02:01:12;-4.30;92.00
15879;DHT22;61999;51.514;14.614;2024-01-15T02:03:40;-4.20;91.70
15879;DHT22;61999;51.514;14.614;2024-01-15T02:06:08;-4.20;91.70
15879;DHT22;61999;51.514;14.614;2024-01-15T02:08:37;-4.20;91.40
15879;DHT22;61999;51.514;14.614;2024-01-15T02:11:06;-4.50;91.80
15879;DHT22;61999;51.514;14.614;2024-01-15T02:13:34;-4.50;92.00
15879;DHT22;61999;51.514;14.614;2024-01-15T02:16:03;-4.40;91.70
15879;DHT22;61999;51.514;14.614;2024-01-15T02:18:40;-4.40;91.80
15879;DHT22;61999;51.514;14.614;2024-01-15T02:21:09;-4.40;91.70
15879;DHT22;61999;51.514;14.614;2024-01-15T02:23:39;-4.40;91.70
15879;DHT22;61999;51.514;14.614;2024-01-15T02:26:07;-4.50;92.00
15879;DHT22;61999;51.514;14.614;2024-01-15T02:28:36;-4.50;91.90
15879;DHT22;61999;51.514;14.614;2024-01-15T02:31:04;-4.40;91.70
15879;DHT22;61999;51.514;14.614;2024-01-15T02:33:32;-4.30;91.40
15879;DHT22;61999;51.514;14.614;2024-01-15T02:36:00;-4.20;91.50
15879;DHT22;61999;51.514;14.614;2024-01-15T02:38:29;-4.50;92.30
15879;DHT22;61999;51.514;14.614;2024-01-15T02:40:58;-4.60;92.90
15879;DHT22;61999;51.514;14.614;2024-01-15T02:43:26;-4.60;93.00
15879;DHT22;61999;51.514;14.614;2024-01-15T02:45:54;-4.60;92.90
15879;DHT22;61999;51.514;14.614;2024-01-15T02:48:22;-4.50;92.20
15879;DHT22;61999;51.514;14.614;2024-01-15T02:50:50;-4.50;92.00
15879;DHT22;61999;51.514;14.614;2024-01-15T02:53:18;-4.50;92.00
15879;DHT22;61999;51.514;14.614;2024-01-15T02:55:46;-4.40;91.50
15879;DHT22;61999;51.514;14.614;2024-01-15T02:58:15;-4.50;91.50
15879;DHT22;61999;51.514;14.614;2024-01-15T03:00:43;-4.60;92.00
15879;DHT22;61999;51.514;14.614;2024-01-15T03:03:12;-4.50;91.90
15879;DHT22;61999;51.514;14.614;2024-01-15T03:05:40;-4.50;91.90
15879;DHT22;61999;51.514;14.614;2024-01-15T03:08:08;-4.60;92.00
15879;DHT22;61999;51.514;14.614;2024-01-15T03:10:36;-4.70;92.00
15879;DHT22;61999;51.514;14.614;2024-01-15T03:13:04;-4.70;92.70
15879;DHT22;61999;51.514;14.614;2024-01-15T03:15:33;-4.70;93.00
15879;DHT22;61999;51.514;14.614;2024-01-15T03:18:01;-4.70;93.20
15879;DHT22;61999;51.514;14.614;2024-01-15T03:20:30;-4.80;93.50
15879;DHT22;61999;51.514;14.614;2024-01-15T03:22:58;-5.00;94.00
15879;DHT22;61999;51.514;14.614;2024-01-15T03:25:26;-4.80;94.10
15879;DHT22;61999;51.514;14.614;2024-01-15T03:27:54;-4.70;93.70
15879;DHT22;61999;51.514;14.614;2024-01-15T03:30:22;-4.70;93.80
15879;DHT22;61999;51.514;14.614;2024-01-15T03:32:51;-4.60;94.00
15879;DHT22;61999;51.514;14.614;2024-01-15T03:35:19;-4.50;93.70
15879;DHT22;61999;51.514;14.614;2024-01-15T03:37:47;-4.40;93.70
15879;DHT22;61999;51.514;14.614;2024-01-15T03:40:15;-4.40;93.50
15879;DHT22;61999;51.514;14.614;2024-01-15T03:42:44;-4.40;93.70
15879;DHT22;61999;51.514;14.614;2024-01-15T03:45:12;-4.40;93.70
15879;DHT22;61999;51.514;14.614;2024-01-15T03:47:40;-4.40;93.80
15879;DHT22;61999;51.514;14.614;2024-01-15T03:50:10;-4.50;93.60
15879;DHT22;61999;51.514;14.614;2024-01-15T03:52:38;-4.50;93.70
15879;DHT22;61999;51.514;14.614;2024-01-15T03:55:06;-4.70;93.70
15879;DHT22;61999;51.514;14.614;2024-01-15T03:57:35;-4.80;94.10
15879;DHT22;61999;51.514;14.614;2024-01-15T04:00:04;-4.80;94.20
15879;DHT22;61999;51.514;14.614;2024-01-15T04:02:33;-4.80;94.30
15879;DHT22;61999;51.514;14.614;2024-01-15T04:05:01;-4.90;94.20
15879;DHT22;61999;51.514;14.614;2024-01-15T04:07:30;-4.80;94.60
15879;DHT22;61999;51.514;14.614;2024-01-15T04:09:58;-4.60;93.90
15879;DHT22;61999;51.514;14.614;2024-01-15T04:12:26;-4.30;93.30
15879;DHT22;61999;51.514;14.614;2024-01-15T04:14:54;-4.20;92.80
15879;DHT22;61999;51.514;14.614;2024-01-15T04:17:22;-4.20;92.10
15879;DHT22;61999;51.514;14.614;2024-01-15T04:19:50;-4.60;92.40
15879;DHT22;61999;51.514;14.614;2024-01-15T04:22:18;-4.70;92.90
15879;DHT22;61999;51.514;14.614;2024-01-15T04:24:47;-4.50;92.60
15879;DHT22;61999;51.514;14.614;2024-01-15T04:27:15;-4.40;92.30
15879;DHT22;61999;51.514;14.614;2024-01-15T04:29:43;-4.30;91.60
15879;DHT22;61999;51.514;14.614;2024-01-15T04:32:12;-4.50;91.50
15879;DHT22;61999;51.514;14.614;2024-01-15T04:34:40;-4.60;91.70
15879;DHT22;61999;51.514;14.614;2024-01-15T04:37:07;-4.50;91.50
15879;DHT22;61999;51.514;14.614;2024-01-15T04:39:35;-4.50;91.20
15879;DHT22;61999;51.514;14.614;2024-01-15T04:42:05;-4.50;91.40
15879;DHT22;61999;51.514;14.614;2024-01-15T04:44:33;-4.50;91.20
15879;DHT22;61999;51.514;14.614;2024-01-15T04:47:01;-4.50;91.20
15879;DHT22;61999;51.514;14.614;2024-01-15T04:49:29;-4.30;90.90
15879;DHT22;61999;51.514;14.614;2024-01-15T04:51:57;-4.20;90.60
15879;DHT22;61999;51.514;14.614;2024-01-15T04:54:25;-4.30;90.60
15879;DHT22;61999;51.514;14.614;2024-01-15T04:56:53;-4.40;90.70
15879;DHT22;61999;51.514;14.614;2024-01-15T04:59:22;-4.30;90.50
15879;DHT22;61999;51.514;14.614;2024-01-15T05:01:50;-4.30;90.40
15879;DHT22;61999;51.514;14.614;2024-01-15T05:04:19;-4.30;90.30
15879;DHT22;61999;51.514;14.614;2024-01-15T05:06:46;-4.40;90.60
15879;DHT22;61999;51.514;14.614;2024-01-15T05:09:14;-4.40;90.30
15879;DHT22;61999;51.514;14.614;2024-01-15T05:11:42;-4.40;90.50
15879;DHT22;61999;51.514;14.614;2024-01-15T05:14:10;-4.20;90.30
15879;DHT22;61999;51.514;14.614;2024-01-15T05:16:39;-4.20;90.00
15879;DHT22;61999;51.514;14.614;2024-01-15T05:19:07;-4.20;89.60
15879;DHT22;61999;51.514;14.614;2024-01-15T05:21:35;-4.20;90.00
15879;DHT22;61999;51.514;14.614;2024-01-15T05:24:03;-4.10;89.90
15879;DHT22;61999;51.514;14.614;2024-01-15T05:26:31;-4.10;89.60
15879;DHT22;61999;51.514;14.614;2024-01-15T05:28:59;-4.10;89.50
15879;DHT22;61999;51.514;14.614;2024-01-15T05:31:27;-4.00;89.20
15879;DHT22;61999;51.514;14.614;2024-01-15T05:33:56;-4.20;89.40
15879;DHT22;61999;51.514;14.614;2024-01-15T05:36:24;-4.30;89.70
15879;DHT22;61999;51.514;14.614;2024-01-15T05:38:52;-4.30;89.60
15879;DHT22;61999;51.514;14.614;2024-01-15T05:41:20;-4.40;89.40
15879;DHT22;61999;51.514;14.614;2024-01-15T05:43:48;-4.40;89.40
15879;DHT22;61999;51.514;14.614;2024-01-15T05:46:16;-4.50;89.30
15879;DHT22;61999;51.514;14.614;2024-01-15T05:48:44;-4.80;89.60
15879;DHT22;61999;51.514;14.614;2024-01-15T05:51:13;-4.80;90.20
15879;DHT22;61999;51.514;14.614;2024-01-15T05:53:41;-4.60;89.80
15879;DHT22;61999;51.514;14.614;2024-01-15T05:56:10;-4.70;89.70
15879;DHT22;61999;51.514;14.614;2024-01-15T05:58:38;-4.70;89.70
15879;DHT22;61999;51.514;14.614;2024-01-15T06:01:06;-4.70;89.50
15879;DHT22;61999;51.514;14.614;2024-01-15T06:03:34;-4.70;89.10
15879;DHT22;61999;51.514;14.614;2024-01-15T06:06:02;-4.70;89.70
15879;DHT22;61999;51.514;14.614;2024-01-15T06:08:32;-4.50;89.80
15879;DHT22;61999;51.514;14.614;2024-01-15T06:11:00;-4.50;88.70
15879;DHT22;61999;51.514;14.614;2024-01-15T06:13:28;-4.40;88.30
15879;DHT22;61999;51.514;14.614;2024-01-15T06:15:56;-4.40;88.60
15879;DHT22;61999;51.514;14.614;2024-01-15T06:18:24;-4.80;88.70
15879;DHT22;61999;51.514;14.614;2024-01-15T06:20:52;-4.90;89.90
15879;DHT22;61999;51.514;14.614;2024-01-15T06:23:20;-4.90;90.00
15879;DHT22;61999;51.514;14.614;2024-01-15T06:25:49;-4.90;89.60
15879;DHT22;61999;51.514;14.614;2024-01-15T06:28:17;-5.00;90.00
15879;DHT22;61999;51.514;14.614;2024-01-15T06:30:45;-5.00;90.20
15879;DHT22;61999;51.514;14.614;2024-01-15T06:33:12;-4.90;90.10
15879;DHT22;61999;51.514;14.614;2024-01-15T06:35:41;-4.90;90.00
15879;DHT22;61999;51.514;14.614;2024-01-15T06:38:08;-4.90;90.00
15879;DHT22;61999;51.514;14.614;2024-01-15T06:40:36;-4.80;90.00
15879;DHT22;61999;51.514;14.614;2024-01-15T06:43:07;-4.80;89.70
15879;DHT22;61999;51.514;14.614;2024-01-15T06:45:35;-4.90;90.70
15879;DHT22;61999;51.514;14.614;2024-01-15T06:48:04;-5.00;91.20
15879;DHT22;61999;51.514;14.614;2024-01-15T06:50:34;-5.10;92.00
15879;DHT22;61999;51.514;14.614;2024-01-15T06:53:02;-5.30;93.30
15879;DHT22;61999;51.514;14.614;2024-01-15T06:55:30;-5.50;93.20
15879;DHT22;61999;51.514;14.614;2024-01-15T06:57:58;-5.40;93.20
15879;DHT22;61999;51.514;14.614;2024-01-15T07:00:27;-5.30;93.00
15879;DHT22;61999;51.514;14.614;2024-01-15T07:02:55;-5.20;92.40
15879;DHT22;61999;51.514;14.614;2024-01-15T07:05:23;-5.40;92.20
15879;DHT22;61999;51.514;14.614;2024-01-15T07:07:52;-5.50;92.70
15879;DHT22;61999;51.514;14.614;2024-01-15T07:10:19;-5.30;92.50
15879;DHT22;61999;51.514;14.614;2024-01-15T07:12:47;-5.30;91.80
15879;DHT22;61999;51.514;14.614;2024-01-15T07:15:15;-5.30;92.00
15879;DHT22;61999;51.514;14.614;2024-01-15T07:17:45;-5.50;91.70
15879;DHT22;61999;51.514;14.614;2024-01-15T07:20:12;-5.50;92.00
15879;DHT22;61999;51.514;14.614;2024-01-15T07:22:41;-5.40;91.10
15879;DHT22;61999;51.514;14.614;2024-01-15T07:25:09;-5.40;91.40
15879;DHT22;61999;51.514;14.614;2024-01-15T07:27:36;-5.40;90.80
15879;DHT22;61999;51.514;14.614;2024-01-15T07:30:06;-5.60;91.20
15879;DHT22;61999;51.514;14.614;2024-01-15T07:32:35;-5.50;91.00
15879;DHT22;61999;51.514;14.614;2024-01-15T07:35:05;-5.30;90.60
15879;DHT22;61999;51.514;14.614;2024-01-15T07:37:33;-5.10;90.40
15879;DHT22;61999;51.514;14.614;2024-01-15T07:40:01;-5.10;89.50
15879;DHT22;61999;51.514;14.614;2024-01-15T07:42:31;-5.10;90.00
15879;DHT22;61999;51.514;14.614;2024-01-15T07:44:58;-5.10;89.60
15879;DHT22;61999;51.514;14.614;2024-01-15T07:47:27;-5.20;90.00
15879;DHT22;61999;51.514;14.614;2024-01-15T07:49:55;-5.30;90.00
15879;DHT22;61999;51.514;14.614;2024-01-15T07:52:25;-5.20;89.70
15879;DHT22;61999;51.514;14.614;2024-01-15T07:54:53;-5.20;89.90
15879;DHT22;61999;51.514;14.614;2024-01-15T07:57:21;-4.90;89.40
15879;DHT22;61999;51.514;14.614;2024-01-15T07:59:49;-4.80;88.40
15879;DHT22;61999;51.514;14.614;2024-01-15T08:02:18;-4.70;88.70
15879;DHT22;61999;51.514;14.614;2024-01-15T08:04:46;-4.70;87.90
15879;DHT22;61999;51.514;14.614;2024-01-15T08:07:14;-4.80;88.70
15879;DHT22;61999;51.514;14.614;2024-01-15T08:09:43;-4.80;89.10
15879;DHT22;61999;51.514;14.614;2024-01-15T08:12:11;-4.60;88.70
15879;DHT22;61999;51.514;14.614;2024-01-15T08:14:39;-4.40;87.90
15879;DHT22;61999;51.514;14.614;2024-01-15T08:17:07;-4.30;87.70
15879;DHT22;61999;51.514;14.614;2024-01-15T08:19:35;-4.30;87.80
15879;DHT22;61999;51.514;14.614;2024-01-15T08:22:03;-4.20;87.70
15879;DHT22;61999;51.514;14.614;2024-01-15T08:24:31;-4.20;86.60
15879;DHT22;61999;51.514;14.614;2024-01-15T08:27:00;-4.20;87.30
15879;DHT22;61999;51.514;14.614;2024-01-15T08:29:28;-4.20;86.80
15879;DHT22;61999;51.514;14.614;2024-01-15T08:31:59;-4.10;86.70
15879;DHT22;61999;51.514;14.614;2024-01-15T08:34:28;-4.30;86.90
15879;DHT22;61999;51.514;14.614;2024-01-15T08:36:57;-4.50;87.00
15879;DHT22;61999;51.514;14.614;2024-01-15T08:39:25;-4.60;88.00
15879;DHT22;61999;51.514;14.614;2024-01-15T08:41:52;-4.60;88.30
15879;DHT22;61999;51.514;14.614;2024-01-15T08:44:22;-4.60;88.80
15879;DHT22;61999;51.514;14.614;2024-01-15T08:46:50;-4.60;88.80
15879;DHT22;61999;51.514;14.614;2024-01-15T08:49:17;-4.80;88.30
15879;DHT22;61999;51.514;14.614;2024-01-15T08:51:45;-4.80;89.30
15879;DHT22;61999;51.514;14.614;2024-01-15T08:54:14;-4.70;88.70
15879;DHT22;61999;51.514;14.614;2024-01-15T08:56:42;-4.50;88.00
15879;DHT22;61999;51.514;14.614;2024-01-15T08:59:10;-4.60;88.20
15879;DHT22;61999;51.514;14.614;2024-01-15T09:01:39;-4.70;88.40
15879;DHT22;61999;51.514;14.614;2024-01-15T09:04:07;-4.50;88.50
15879;DHT22;61999;51.514;14.614;2024-01-15T09:06:35;-4.30;87.10
15879;DHT22;61999;51.514;14.614;2024-01-15T09:09:03;-4.60;87.10
15879;DHT22;61999;51.514;14.614;2024-01-15T09:11:31;-4.80;87.20
15879;DHT22;61999;51.514;14.614;2024-01-15T09:13:59;-4.90;87.80
15879;DHT22;61999;51.514;14.614;2024-01-15T09:16:27;-4.70;87.30
15879;DHT22;61999;51.514;14.614;2024-01-15T09:18:57;-4.60;87.50
15879;DHT22;61999;51.514;14.614;2024-01-15T09:21:25;-4.60;88.20
15879;DHT22;61999;51.514;14.614;2024-01-15T09:23:53;-4.40;88.10
15879;DHT22;61999;51.514;14.614;2024-01-15T09:26:21;-4.20;86.70
15879;DHT22;61999;51.514;14.614;2024-01-15T09:28:48;-4.10;86.00
15879;DHT22;61999;51.514;14.614;2024-01-15T09:31:17;-3.90;85.80
15879;DHT22;61999;51.514;14.614;2024-01-15T09:33:46;-3.80;84.20
15879;DHT22;61999;51.514;14.614;2024-01-15T09:36:16;-4.00;85.70
15879;DHT22;61999;51.514;14.614;2024-01-15T09:38:44;-4.20;87.00
15879;DHT22;61999;51.514;14.614;2024-01-15T09:41:12;-4.60;88.40
15879;DHT22;61999;51.514;14.614;2024-01-15T09:43:40;-4.60;88.70
15879;DHT22;61999;51.514;14.614;2024-01-15T09:46:09;-4.50;89.10
15879;DHT22;61999;51.514;14.614;2024-01-15T09:48:39;-4.10;88.00
15879;DHT22;61999;51.514;14.614;2024-01-15T09:51:07;-4.00;85.90
15879;DHT22;61999;51.514;14.614;2024-01-15T09:53:37;-3.80;85.10
15879;DHT22;61999;51.514;14.614;2024-01-15T09:56:08;-4.00;84.60
15879;DHT22;61999;51.514;14.614;2024-01-15T09:58:39;-3.80;85.50
15879;DHT22;61999;51.514;14.614;2024-01-15T10:01:08;-3.50;83.70
15879;DHT22;61999;51.514;14.614;2024-01-15T10:03:37;-3.50;87.20
15879;DHT22;61999;51.514;14.614;2024-01-15T10:06:08;-3.60;86.60
15879;DHT22;61999;51.514;14.614;2024-01-15T10:08:40;-3.60;87.00
15879;DHT22;61999;51.514;14.614;2024-01-15T10:11:08;-3.40;86.20
15879;DHT22;61999;51.514;14.614;2024-01-15T10:13:36;-3.40;84.60
15879;DHT22;61999;51.514;14.614;2024-01-15T10:16:05;-3.50;83.40
15879;DHT22;61999;51.514;14.614;2024-01-15T10:18:33;-3.70;84.90
15879;DHT22;61999;51.514;14.614;2024-01-15T10:21:02;-3.60;84.40
15879;DHT22;61999;51.514;14.614;2024-01-15T10:23:32;-3.60;82.90
15879;DHT22;61999;51.514;14.614;2024-01-15T10:26:01;-3.70;83.30
15879;DHT22;61999;51.514;14.614;2024-01-15T10:28:30;-3.70;83.70
15879;DHT22;61999;51.514;14.614;2024-01-15T10:31:00;-3.60;82.80
15879;DHT22;61999;51.514;14.614;2024-01-15T10:33:28;-3.60;82.50
15879;DHT22;61999;51.514;14.614;2024-01-15T10:35:57;-3.70;83.90
15879;DHT22;61999;51.514;14.614;2024-01-15T10:38:27;-3.70;83.00
15879;DHT22;61999;51.514;14.614;2024-01-15T10:40:55;-4.20;84.00
15879;DHT22;61999;51.514;14.614;2024-01-15T10:43:25;-4.20;85.10
15879;DHT22;61999;51.514;14.614;2024-01-15T10:45:53;-4.00;85.00
15879;DHT22;61999;51.514;14.614;2024-01-15T10:48:21;-3.90;83.70
15879;DHT22;61999;51.514;14.614;2024-01-15T10:50:49;-4.00;84.50
15879;DHT22;61999;51.514;14.614;2024-01-15T10:53:17;-3.90;83.80
15879;DHT22;61999;51.514;14.614;2024-01-15T10:55:47;-3.80;83.80
15879;DHT22;61999;51.514;14.614;2024-01-15T10:58:16;-3.70;83.20
15879;DHT22;61999;51.514;14.614;2024-01-15T11:00:46;-3.90;84.00
15879;DHT22;61999;51.514;14.614;2024-01-15T11:03:14;-3.80;83.50
15879;DHT22;61999;51.514;14.614;2024-01-15T11:05:45;-3.70;83.70
15879;DHT22;61999;51.514;14.614;2024-01-15T11:08:17;-3.80;83.70
15879;DHT22;61999;51.514;14.614;2024-01-15T11:10:46;-3.70;84.00
15879;DHT22;61999;51.514;14.614;2024-01-15T11:13:20;-3.80;83.30
15879;DHT22;61999;51.514;14.614;2024-01-15T11:15:59;-4.10;83.70
15879;DHT22;61999;51.514;14.614;2024-01-15T11:18:29;-4.20;84.90
15879;DHT22;61999;51.514;14.614;2024-01-15T11:21:19;-4.20;85.50
15879;DHT22;61999;51.514;14.614;2024-01-15T11:23:51;-4.10;85.10
15879;DHT22;61999;51.514;14.614;2024-01-15T11:26:32;-4.20;85.30
15879;DHT22;61999;51.514;14.614;2024-01-15T11:29:03;-4.20;85.80
15879;DHT22;61999;51.514;14.614;2024-01-15T11:32:02;-4.10;85.50
15879;DHT22;61999;51.514;14.614;2024-01-15T11:34:53;-4.00;84.40
15879;DHT22;61999;51.514;14.614;2024-01-15T11:37:25;-4.00;83.90
15879;DHT22;61999;51.514;14.614;2024-01-15T11:39:55;-4.10;84.10
15879;DHT22;61999;51.514;14.614;2024-01-15T11:42:30;-4.20;85.00
15879;DHT22;61999;51.514;14.614;2024-01-15T11:44:58;-4.00;84.50
15879;DHT22;61999;51.514;14.614;2024-01-15T11:50:40;-3.80;84.30
15879;DHT22;61999;51.514;14.614;2024-01-15T11:53:17;-3.50;82.50
15879;DHT22;61999;51.514;14.614;2024-01-15T11:56:02;-3.60;83.50
15879;DHT22;61999;51.514;14.614;2024-01-15T11:58:34;-3.50;84.10
15879;DHT22;61999;51.514;14.614;2024-01-15T12:01:04;-3.50;83.40
15879;DHT22;61999;51.514;14.614;2024-01-15T12:03:33;-3.60;83.00
15879;DHT22;61999;51.514;14.614;2024-01-15T12:06:01;-3.80;83.50
15879;DHT22;61999;51.514;14.614;2024-01-15T12:08:29;-3.90;84.70
15879;DHT22;61999;51.514;14.614;2024-01-15T12:10:57;-3.60;84.50
15879;DHT22;61999;51.514;14.614;2024-01-15T12:13:25;-3.30;83.40
15879;DHT22;61999;51.514;14.614;2024-01-15T12:15:54;-3.30;84.30
15879;DHT22;61999;51.514;14.614;2024-01-15T12:18:22;-3.20;83.20
15879;DHT22;61999;51.514;14.614;2024-01-15T12:20:54;-3.20;83.70
15879;DHT22;61999;51.514;14.614;2024-01-15T12:23:23;-3.10;82.20
15879;DHT22;61999;51.514;14.614;2024-01-15T12:25:51;-3.00;82.00
15879;DHT22;61999;51.514;14.614;2024-01-15T12:28:19;-3.00;81.40
15879;DHT22;61999;51.514;14.614;2024-01-15T12:30:47;-3.00;81.40
15879;DHT22;61999;51.514;14.614;2024-01-15T12:33:17;-2.80;80.50
15879;DHT22;61999;51.514;14.614;2024-01-15T12:35:47;-2.70;80.10
15879;DHT22;61999;51.514;14.614;2024-01-15T12:38:18;-3.00;80.40
15879;DHT22;61999;51.514;14.614;2024-01-15T12:40:46;-3.10;81.30
15879;DHT22;61999;51.514;14.614;2024-01-15T12:43:14;-3.00;81.60
15879;DHT22;61999;51.514;14.614;2024-01-15T12:45:42;-3.00;80.50
15879;DHT22;61999;51.514;14.614;2024-01-15T12:48:10;-3.00;81.10
15879;DHT22;61999;51.514;14.614;2024-01-15T12:50:42;-3.00;81.10
15879;DHT22;61999;51.514;14.614;2024-01-15T12:53:10;-2.80;80.20
15879;DHT22;61999;51.514;14.614;2024-01-15T12:55:40;-2.90;79.70
15879;DHT22;61999;51.514;14.614;2024-01-15T12:58:08;-3.10;80.60
15879;DHT22;61999;51.514;14.614;2024-01-15T13:00:36;-3.30;81.40
15879;DHT22;61999;51.514;14.614;2024-01-15T13:03:04;-3.30;81.10
15879;DHT22;61999;51.514;14.614;2024-01-15T13:05:32;-3.50;81.80
15879;DHT22;61999;51.514;14.614;2024-01-15T13:08:01;-3.50;81.70
15879;DHT22;61999;51.514;14.614;2024-01-15T13:10:30;-3.40;83.10
15879;DHT22;61999;51.514;14.614;2024-01-15T13:12:59;-3.60;82.80
15879;DHT22;61999;51.514;14.614;2024-01-15T13:15:27;-3.60;83.00
15879;DHT22;61999;51.514;14.614;2024-01-15T13:17:55;-3.60;83.10
15879;DHT22;61999;51.514;14.614;2024-01-15T13:20:23;-3.40;82.70
15879;DHT22;61999;51.514;14.614;2024-01-15T13:22:51;-3.30;82.50
15879;DHT22;61999;51.514;14.614;2024-01-15T13:25:19;-3.50;83.20
15879;DHT22;61999;51.514;14.614;2024-01-15T13:27:47;-3.50;84.20
15879;DHT22;61999;51.514;14.614;2024-01-15T13:30:17;-3.60;85.00
15879;DHT22;61999;51.514;14.614;2024-01-15T13:32:45;-3.50;85.00
15879;DHT22;61999;51.514;14.614;2024-01-15T13:35:13;-3.20;84.20
15879;DHT22;61999;51.514;14.614;2024-01-15T13:37:41;-3.00;83.50
15879;DHT22;61999;51.514;14.614;2024-01-15T13:40:10;-2.90;83.50
15879;DHT22;61999;51.514;14.614;2024-01-15T13:42:43;-2.80;84.00
15879;DHT22;61999;51.514;14.614;2024-01-15T13:45:11;-2.80;84.20
15879;DHT22;61999;51.514;14.614;2024-01-15T13:47:42;-3.00;85.30
15879;DHT22;61999;51.514;14.614;2024-01-15T13:50:10;-3.50;87.90
15879;DHT22;61999;51.514;14.614;2024-01-15T13:52:39;-3.60;90.00
15879;DHT22;61999;51.514;14.614;2024-01-15T13:55:07;-3.60;90.40
15879;DHT22;61999;51.514;14.614;2024-01-15T13:57:36;-3.60;90.80
15879;DHT22;61999;51.514;14.614;2024-01-15T14:00:05;-3.40;90.50
15879;DHT22;61999;51.514;14.614;2024-01-15T14:02:38;-3.40;90.70
15879;DHT22;61999;51.514;14.614;2024-01-15T14:05:07;-3.40;90.90
15879;DHT22;61999;51.514;14.614;2024-01-15T14:07:35;-3.30;90.40
15879;DHT22;61999;51.514;14.614;2024-01-15T14:10:04;-3.30;90.50
15879;DHT22;61999;51.514;14.614;2024-01-15T14:12:34;-3.30;90.70
15879;DHT22;61999;51.514;14.614;2024-01-15T14:15:03;-3.10;90.10
15879;DHT22;61999;51.514;14.614;2024-01-15T14:17:32;-3.40;90.40
15879;DHT22;61999;51.514;14.614;2024-01-15T14:20:00;-3.60;90.60
15879;DHT22;61999;51.514;14.614;2024-01-15T14:22:29;-3.70;90.90
15879;DHT22;61999;51.514;14.614;2024-01-15T14:24:57;-3.60;90.70
15879;DHT22;61999;51.514;14.614;2024-01-15T14:27:26;-3.50;90.50
15879;DHT22;61999;51.514;14.614;2024-01-15T14:29:54;-3.50;90.40
15879;DHT22;61999;51.514;14.614;2024-01-15T14:32:22;-3.50;90.50
15879;DHT22;61999;51.514;14.614;2024-01-15T14:34:50;-3.50;90.30
15879;DHT22;61999;51.514;14.614;2024-01-15T14:37:18;-3.40;90.10
15879;DHT22;61999;51.514;14.614;2024-01-15T14:39:48;-3.40;90.20
15879;DHT22;61999;51.514;14.614;2024-01-15T14:42:16;-3.20;89.10
15879;DHT22;61999;51.514;14.614;2024-01-15T14:44:44;-3.00;87.80
15879;DHT22;61999;51.514;14.614;2024-01-15T14:47:12;-3.10;87.30
15879;DHT22;61999;51.514;14.614;2024-01-15T14:49:40;-3.10;87.70
15879;DHT22;61999;51.514;14.614;2024-01-15T14:52:08;-3.10;86.50
15879;DHT22;61999;51.514;14.614;2024-01-15T14:54:36;-3.10;86.70
15879;DHT22;61999;51.514;14.614;2024-01-15T14:57:06;-3.10;85.40
15879;DHT22;61999;51.514;14.614;2024-01-15T14:59:34;-3.20;84.90
15879;DHT22;61999;51.514;14.614;2024-01-15T15:02:02;-3.20;85.20
15879;DHT22;61999;51.514;14.614;2024-01-15T15:04:30;-3.40;84.40
15879;DHT22;61999;51.514;14.614;2024-01-15T15:06:58;-3.60;85.60
15879;DHT22;61999;51.514;14.614;2024-01-15T15:09:26;-3.70;86.20
15879;DHT22;61999;51.514;14.614;2024-01-15T15:11:54;-3.80;88.20
15879;DHT22;61999;51.514;14.614;2024-01-15T15:14:23;-3.80;91.20
15879;DHT22;61999;51.514;14.614;2024-01-15T15:16:51;-3.70;91.20
15879;DHT22;61999;51.514;14.614;2024-01-15T15:19:19;-3.50;90.40
15879;DHT22;61999;51.514;14.614;2024-01-15T15:21:47;-3.50;90.40
15879;DHT22;61999;51.514;14.614;2024-01-15T15:24:15;-3.60;90.90
15879;DHT22;61999;51.514;14.614;2024-01-15T15:26:43;-3.50;90.70